sensor_id;sensor_type;location;lat;lon;timestamp;P1;durP1;ratioP1;P2;durP2;ratioP2
61741;SDS011;47650;49.848;9.620;2024-03-22T00:00:39;38.45;;;22.77;;
61741;SDS011;47650;49.848;9.620;2024-03-22T00:03:05;36.83;;;24.17;;
61741;SDS011;47650;49.848;9.620;2024-03-22T00:05:31;34.83;;;22.80;;
61741;SDS011;47650;49.848;9.620;2024-03-22T00:07:56;32.47;;;21.67;;
61741;SDS011;47650;49.848;9.620;2024-03-22T00:10:22;35.25;;;21.20;;
61741;SDS011;47650;49.848;9.620;2024-03-22T00:12:49;33.00;;;23.38;;
61741;SDS011;47650;49.848;9.620;2024-03-22T00:15:15;39.20;;;23.92;;
61741;SDS011;47650;49.848;9.620;2024-03-22T00:17:44;36.92;;;24.73;;
61741;SDS011;47650;49.848;9.620;2024-03-22T00:20:13;37.28;;;24.15;;
61741;SDS011;47650;49.848;9.620;2024-03-22T00:22:40;33.42;;;22.40;;
61741;SDS011;47650;49.848;9.620;2024-03-22T00:25:06;34.85;;;23.40;;
61741;SDS011;47650;49.848;9.620;2024-03-22T00:27:32;43.65;;;26.98;;
61741;SDS011;47650;49.848;9.620;2024-03-22T00:29:58;40.70;;;26.67;;
61741;SDS011;47650;49.848;9.620;2024-03-22T00:32:23;40.95;;;25.95;;
61741;SDS011;47650;49.848;9.620;2024-03-22T00:34:49;37.40;;;24.08;;
61741;SDS011;47650;49.848;9.620;2024-03-22T00:37:20;44.58;;;25.58;;
61741;SDS011;47650;49.848;9.620;2024-03-22T00:39:45;43.13;;;25.63;;
61741;SDS011;47650;49.848;9.620;2024-03-22T00:42:11;37.10;;;23.17;;
61741;SDS011;47650;49.848;9.620;2024-03-22T00:44:37;35.75;;;24.48;;
61741;SDS011;47650;49.848;9.620;2024-03-22T00:47:03;37.40;;;24.33;;
61741;SDS011;47650;49.848;9.620;2024-03-22T00:49:30;35.88;;;22.85;;
61741;SDS011;47650;49.848;9.620;2024-03-22T00:51:56;43.08;;;25.48;;
61741;SDS011;47650;49.848;9.620;2024-03-22T00:54:22;38.58;;;23.85;;
61741;SDS011;47650;49.848;9.620;2024-03-22T00:56:49;30.40;;;22.30;;
61741;SDS011;47650;49.848;9.620;2024-03-22T00:59:14;44.63;;;26.73;;
61741;SDS011;47650;49.848;9.620;2024-03-22T01:01:41;33.72;;;23.08;;
61741;SDS011;47650;49.848;9.620;2024-03-22T01:04:07;36.92;;;22.08;;
61741;SDS011;47650;49.848;9.620;2024-03-22T01:06:35;42.47;;;24.95;;
61741;SDS011;47650;49.848;9.620;2024-03-22T01:09:01;35.50;;;23.17;;
61741;SDS011;47650;49.848;9.620;2024-03-22T01:11:28;38.20;;;23.75;;
61741;SDS011;47650;49.848;9.620;2024-03-22T01:13:55;35.13;;;22.15;;
61741;SDS011;47650;49.848;9.620;2024-03-22T01:16:20;40.72;;;25.00;;
61741;SDS011;47650;49.848;9.620;2024-03-22T01:18:46;36.33;;;23.65;;
61741;SDS011;47650;49.848;9.620;2024-03-22T01:21:13;39.00;;;23.08;;
61741;SDS011;47650;49.848;9.620;2024-03-22T01:23:38;45.72;;;26.85;;
61741;SDS011;47650;49.848;9.620;2024-03-22T01:26:03;44.58;;;24.80;;
61741;SDS011;47650;49.848;9.620;2024-03-22T01:28:31;43.47;;;24.67;;
61741;SDS011;47650;49.848;9.620;2024-03-22T01:30:59;39.47;;;24.30;;
61741;SDS011;47650;49.848;9.620;2024-03-22T01:33:24;41.58;;;25.33;;
61741;SDS011;47650;49.848;9.620;2024-03-22T01:35:49;41.50;;;25.45;;
61741;SDS011;47650;49.848;9.620;2024-03-22T01:38:16;37.15;;;22.58;;
61741;SDS011;47650;49.848;9.620;2024-03-22T01:40:42;42.53;;;25.15;;
61741;SDS011;47650;49.848;9.620;2024-03-22T01:43:10;50.10;;;28.52;;
61741;SDS011;47650;49.848;9.620;2024-03-22T01:45:37;51.53;;;28.92;;
61741;SDS011;47650;49.848;9.620;2024-03-22T01:48:04;43.10;;;25.88;;
61741;SDS011;47650;49.848;9.620;2024-03-22T01:50:31;40.42;;;24.65;;
61741;SDS011;47650;49.848;9.620;2024-03-22T01:52:57;45.38;;;25.70;;
61741;SDS011;47650;49.848;9.620;2024-03-22T01:55:23;42.42;;;26.52;;
61741;SDS011;47650;49.848;9.620;2024-03-22T01:57:50;43.80;;;26.13;;
61741;SDS011;47650;49.848;9.620;2024-03-22T02:00:18;41.45;;;24.65;;
61741;SDS011;47650;49.848;9.620;2024-03-22T02:02:44;47.67;;;27.05;;
61741;SDS011;47650;49.848;9.620;2024-03-22T02:05:16;47.10;;;27.48;;
61741;SDS011;47650;49.848;9.620;2024-03-22T02:07:46;46.72;;;27.42;;
61741;SDS011;47650;49.848;9.620;2024-03-22T02:10:13;59.95;;;29.85;;
61741;SDS011;47650;49.848;9.620;2024-03-22T02:12:39;51.97;;;28.15;;
61741;SDS011;47650;49.848;9.620;2024-03-22T02:15:06;49.20;;;27.05;;
61741;SDS011;47650;49.848;9.620;2024-03-22T02:17:34;44.42;;;24.90;;
61741;SDS011;47650;49.848;9.620;2024-03-22T02:20:00;56.53;;;29.35;;
61741;SDS011;47650;49.848;9.620;2024-03-22T02:22:27;47.95;;;26.17;;
61741;SDS011;47650;49.848;9.620;2024-03-22T02:24:54;44.17;;;27.00;;
61741;SDS011;47650;49.848;9.620;2024-03-22T02:27:19;52.75;;;27.52;;
61741;SDS011;47650;49.848;9.620;2024-03-22T02:29:46;59.47;;;28.98;;
61741;SDS011;47650;49.848;9.620;2024-03-22T02:32:11;56.92;;;29.75;;
61741;SDS011;47650;49.848;9.620;2024-03-22T02:34:37;78.32;;;30.80;;
61741;SDS011;47650;49.848;9.620;2024-03-22T02:37:03;54.67;;;29.33;;
61741;SDS011;47650;49.848;9.620;2024-03-22T02:39:34;49.15;;;26.48;;
61741;SDS011;47650;49.848;9.620;2024-03-22T02:42:02;45.22;;;26.90;;
61741;SDS011;47650;49.848;9.620;2024-03-22T02:44:28;41.92;;;24.73;;
61741;SDS011;47650;49.848;9.620;2024-03-22T02:46:53;45.75;;;25.48;;
61741;SDS011;47650;49.848;9.620;2024-03-22T02:49:19;51.03;;;28.80;;
61741;SDS011;47650;49.848;9.620;2024-03-22T02:51:44;62.20;;;30.48;;
61741;SDS011;47650;49.848;9.620;2024-03-22T02:54:11;57.47;;;29.42;;
61741;SDS011;47650;49.848;9.620;2024-03-22T02:56:36;54.38;;;27.95;;
61741;SDS011;47650;49.848;9.620;2024-03-22T02:59:01;68.32;;;31.15;;
61741;SDS011;47650;49.848;9.620;2024-03-22T03:01:28;53.50;;;29.05;;
61741;SDS011;47650;49.848;9.620;2024-03-22T03:03:53;64.57;;;30.83;;
61741;SDS011;47650;49.848;9.620;2024-03-22T03:06:19;61.75;;;29.92;;
61741;SDS011;47650;49.848;9.620;2024-03-22T03:08:46;55.90;;;28.65;;
61741;SDS011;47650;49.848;9.620;2024-03-22T03:11:11;62.38;;;29.08;;
61741;SDS011;47650;49.848;9.620;2024-03-22T03:13:40;55.28;;;29.10;;
61741;SDS011;47650;49.848;9.620;2024-03-22T03:16:06;53.95;;;28.48;;
61741;SDS011;47650;49.848;9.620;2024-03-22T03:18:31;53.08;;;27.90;;
61741;SDS011;47650;49.848;9.620;2024-03-22T03:20:58;54.55;;;27.88;;
61741;SDS011;47650;49.848;9.620;2024-03-22T03:23:23;58.97;;;28.80;;
61741;SDS011;47650;49.848;9.620;2024-03-22T03:25:49;67.53;;;30.67;;
61741;SDS011;47650;49.848;9.620;2024-03-22T03:28:14;61.90;;;29.88;;
61741;SDS011;47650;49.848;9.620;2024-03-22T03:30:39;57.53;;;29.40;;
61741;SDS011;47650;49.848;9.620;2024-03-22T03:33:06;67.38;;;31.73;;
61741;SDS011;47650;49.848;9.620;2024-03-22T03:35:31;54.42;;;28.77;;
61741;SDS011;47650;49.848;9.620;2024-03-22T03:37:57;56.67;;;28.25;;
61741;SDS011;47650;49.848;9.620;2024-03-22T03:40:22;51.65;;;27.23;;
61741;SDS011;47650;49.848;9.620;2024-03-22T03:42:49;52.58;;;28.75;;
61741;SDS011;47650;49.848;9.620;2024-03-22T03:45:19;55.75;;;28.50;;
61741;SDS011;47650;49.848;9.620;2024-03-22T03:47:45;54.28;;;27.35;;
61741;SDS011;47650;49.848;9.620;2024-03-22T03:50:12;62.38;;;30.58;;
61741;SDS011;47650;49.848;9.620;2024-03-22T03:52:38;54.40;;;27.90;;
61741;SDS011;47650;49.848;9.620;2024-03-22T03:55:04;57.55;;;28.00;;
61741;SDS011;47650;49.848;9.620;2024-03-22T03:57:30;44.25;;;25.90;;
61741;SDS011;47650;49.848;9.620;2024-03-22T03:59:55;44.95;;;26.02;;
61741;SDS011;47650;49.848;9.620;2024-03-22T04:02:20;69.00;;;31.98;;
61741;SDS011;47650;49.848;9.620;2024-03-22T04:04:46;63.10;;;30.23;;
61741;SDS011;47650;49.848;9.620;2024-03-22T04:07:11;65.28;;;30.48;;
61741;SDS011;47650;49.848;9.620;2024-03-22T04:09:36;69.07;;;31.52;;
61741;SDS011;47650;49.848;9.620;2024-03-22T04:12:02;72.50;;;29.95;;
61741;SDS011;47650;49.848;9.620;2024-03-22T04:14:27;60.15;;;28.88;;
61741;SDS011;47650;49.848;9.620;2024-03-22T04:16:54;59.28;;;29.10;;
61741;SDS011;47650;49.848;9.620;2024-03-22T04:19:21;51.20;;;26.88;;
61741;SDS011;47650;49.848;9.620;2024-03-22T04:21:48;50.00;;;26.90;;
61741;SDS011;47650;49.848;9.620;2024-03-22T04:24:14;54.42;;;26.55;;
61741;SDS011;47650;49.848;9.620;2024-03-22T04:26:40;58.42;;;30.23;;
61741;SDS011;47650;49.848;9.620;2024-03-22T04:29:05;63.80;;;30.90;;
61741;SDS011;47650;49.848;9.620;2024-03-22T04:31:31;56.85;;;29.30;;
61741;SDS011;47650;49.848;9.620;2024-03-22T04:33:56;69.13;;;30.95;;
61741;SDS011;47650;49.848;9.620;2024-03-22T04:36:22;72.47;;;31.58;;
61741;SDS011;47650;49.848;9.620;2024-03-22T04:38:48;77.00;;;32.78;;
61741;SDS011;47650;49.848;9.620;2024-03-22T04:41:13;61.72;;;29.98;;
61741;SDS011;47650;49.848;9.620;2024-03-22T04:43:38;60.78;;;30.05;;
61741;SDS011;47650;49.848;9.620;2024-03-22T04:46:04;74.28;;;32.42;;
61741;SDS011;47650;49.848;9.620;2024-03-22T04:48:29;70.05;;;30.38;;
61741;SDS011;47650;49.848;9.620;2024-03-22T04:50:56;72.57;;;31.25;;
61741;SDS011;47650;49.848;9.620;2024-03-22T04:53:21;79.32;;;33.33;;
61741;SDS011;47650;49.848;9.620;2024-03-22T04:55:48;71.20;;;32.70;;
61741;SDS011;47650;49.848;9.620;2024-03-22T04:58:14;79.95;;;35.10;;
61741;SDS011;47650;49.848;9.620;2024-03-22T05:00:41;67.53;;;30.98;;
61741;SDS011;47650;49.848;9.620;2024-03-22T05:03:07;76.00;;;33.78;;
61741;SDS011;47650;49.848;9.620;2024-03-22T05:05:37;64.20;;;30.90;;
61741;SDS011;47650;49.848;9.620;2024-03-22T05:08:04;93.30;;;36.50;;
61741;SDS011;47650;49.848;9.620;2024-03-22T05:10:30;83.93;;;33.53;;
61741;SDS011;47650;49.848;9.620;2024-03-22T05:12:57;83.60;;;34.10;;
61741;SDS011;47650;49.848;9.620;2024-03-22T05:15:24;72.07;;;32.28;;
61741;SDS011;47650;49.848;9.620;2024-03-22T05:17:53;71.43;;;31.88;;
61741;SDS011;47650;49.848;9.620;2024-03-22T05:20:20;81.43;;;33.33;;
61741;SDS011;47650;49.848;9.620;2024-03-22T05:22:46;69.93;;;31.27;;
61741;SDS011;47650;49.848;9.620;2024-03-22T05:25:13;59.35;;;29.67;;
61741;SDS011;47650;49.848;9.620;2024-03-22T05:27:40;51.03;;;27.42;;
61741;SDS011;47650;49.848;9.620;2024-03-22T05:30:06;81.57;;;34.17;;
61741;SDS011;47650;49.848;9.620;2024-03-22T05:32:33;64.05;;;30.20;;
61741;SDS011;47650;49.848;9.620;2024-03-22T05:35:00;63.20;;;30.48;;
61741;SDS011;47650;49.848;9.620;2024-03-22T05:37:25;78.10;;;32.70;;
61741;SDS011;47650;49.848;9.620;2024-03-22T05:39:50;57.88;;;31.10;;
61741;SDS011;47650;49.848;9.620;2024-03-22T05:42:16;73.78;;;33.05;;
61741;SDS011;47650;49.848;9.620;2024-03-22T05:44:43;59.33;;;30.65;;
61741;SDS011;47650;49.848;9.620;2024-03-22T05:47:13;78.90;;;32.63;;
61741;SDS011;47650;49.848;9.620;2024-03-22T05:49:39;70.70;;;32.38;;
61741;SDS011;47650;49.848;9.620;2024-03-22T05:52:05;59.30;;;29.17;;
61741;SDS011;47650;49.848;9.620;2024-03-22T05:54:31;70.28;;;29.25;;
61741;SDS011;47650;49.848;9.620;2024-03-22T05:56:58;74.63;;;32.05;;
61741;SDS011;47650;49.848;9.620;2024-03-22T05:59:31;47.63;;;26.85;;
61741;SDS011;47650;49.848;9.620;2024-03-22T06:01:57;55.08;;;26.73;;
61741;SDS011;47650;49.848;9.620;2024-03-22T06:04:22;55.33;;;28.23;;
61741;SDS011;47650;49.848;9.620;2024-03-22T06:06:48;50.90;;;27.27;;
61741;SDS011;47650;49.848;9.620;2024-03-22T06:09:15;50.13;;;27.92;;
61741;SDS011;47650;49.848;9.620;2024-03-22T06:11:49;53.40;;;26.65;;
61741;SDS011;47650;49.848;9.620;2024-03-22T06:14:15;54.25;;;28.00;;
61741;SDS011;47650;49.848;9.620;2024-03-22T06:16:40;55.72;;;28.58;;
61741;SDS011;47650;49.848;9.620;2024-03-22T06:19:05;39.85;;;25.58;;
61741;SDS011;47650;49.848;9.620;2024-03-22T06:21:30;41.88;;;26.63;;
61741;SDS011;47650;49.848;9.620;2024-03-22T06:23:56;36.08;;;23.42;;
61741;SDS011;47650;49.848;9.620;2024-03-22T06:26:21;31.08;;;22.25;;
61741;SDS011;47650;49.848;9.620;2024-03-22T06:28:48;44.58;;;25.95;;
61741;SDS011;47650;49.848;9.620;2024-03-22T06:31:13;35.03;;;23.67;;
61741;SDS011;47650;49.848;9.620;2024-03-22T06:33:38;32.85;;;23.98;;
61741;SDS011;47650;49.848;9.620;2024-03-22T06:36:05;36.78;;;24.23;;
61741;SDS011;47650;49.848;9.620;2024-03-22T06:38:31;29.52;;;22.75;;
61741;SDS011;47650;49.848;9.620;2024-03-22T06:40:56;35.88;;;27.77;;
61741;SDS011;47650;49.848;9.620;2024-03-22T06:43:27;67.68;;;53.08;;
61741;SDS011;47650;49.848;9.620;2024-03-22T06:45:59;38.60;;;28.67;;
61741;SDS011;47650;49.848;9.620;2024-03-22T06:48:25;39.25;;;32.22;;
61741;SDS011;47650;49.848;9.620;2024-03-22T06:50:50;33.15;;;27.25;;
61741;SDS011;47650;49.848;9.620;2024-03-22T06:53:17;34.05;;;24.70;;
61741;SDS011;47650;49.848;9.620;2024-03-22T06:55:42;30.75;;;22.45;;
61741;SDS011;47650;49.848;9.620;2024-03-22T06:58:07;28.52;;;22.85;;
61741;SDS011;47650;49.848;9.620;2024-03-22T07:00:38;29.63;;;22.67;;
61741;SDS011;47650;49.848;9.620;2024-03-22T07:03:03;25.23;;;21.63;;
61741;SDS011;47650;49.848;9.620;2024-03-22T07:05:28;26.10;;;21.38;;
61741;SDS011;47650;49.848;9.620;2024-03-22T07:07:55;22.73;;;18.75;;
61741;SDS011;47650;49.848;9.620;2024-03-22T07:10:22;25.27;;;19.90;;
61741;SDS011;47650;49.848;9.620;2024-03-22T07:12:52;24.30;;;19.17;;
61741;SDS011;47650;49.848;9.620;2024-03-22T07:15:19;26.90;;;20.05;;
61741;SDS011;47650;49.848;9.620;2024-03-22T07:17:44;22.40;;;19.55;;
61741;SDS011;47650;49.848;9.620;2024-03-22T07:20:10;25.88;;;19.98;;
61741;SDS011;47650;49.848;9.620;2024-03-22T07:22:35;23.10;;;18.13;;
61741;SDS011;47650;49.848;9.620;2024-03-22T07:25:01;25.10;;;19.80;;
61741;SDS011;47650;49.848;9.620;2024-03-22T07:27:27;25.85;;;20.02;;
61741;SDS011;47650;49.848;9.620;2024-03-22T07:29:54;26.23;;;21.40;;
61741;SDS011;47650;49.848;9.620;2024-03-22T07:32:19;22.85;;;19.52;;
61741;SDS011;47650;49.848;9.620;2024-03-22T07:34:48;25.88;;;19.77;;
61741;SDS011;47650;49.848;9.620;2024-03-22T07:37:19;27.42;;;21.35;;
61741;SDS011;47650;49.848;9.620;2024-03-22T07:39:45;23.60;;;19.90;;
61741;SDS011;47650;49.848;9.620;2024-03-22T07:42:11;30.17;;;22.02;;
61741;SDS011;47650;49.848;9.620;2024-03-22T07:44:37;28.73;;;20.67;;
61741;SDS011;47650;49.848;9.620;2024-03-22T07:47:02;26.13;;;19.05;;
61741;SDS011;47650;49.848;9.620;2024-03-22T07:49:28;26.00;;;19.85;;
61741;SDS011;47650;49.848;9.620;2024-03-22T07:51:54;22.73;;;18.35;;
61741;SDS011;47650;49.848;9.620;2024-03-22T07:54:19;25.10;;;20.45;;
61741;SDS011;47650;49.848;9.620;2024-03-22T07:56:47;24.27;;;18.02;;
61741;SDS011;47650;49.848;9.620;2024-03-22T07:59:12;25.48;;;17.75;;
61741;SDS011;47650;49.848;9.620;2024-03-22T08:01:38;19.05;;;16.35;;
61741;SDS011;47650;49.848;9.620;2024-03-22T08:04:05;24.27;;;16.13;;
61741;SDS011;47650;49.848;9.620;2024-03-22T08:06:31;20.13;;;16.40;;
61741;SDS011;47650;49.848;9.620;2024-03-22T08:08:56;23.60;;;17.13;;
61741;SDS011;47650;49.848;9.620;2024-03-22T08:11:21;20.65;;;17.05;;
61741;SDS011;47650;49.848;9.620;2024-03-22T08:13:47;17.38;;;15.48;;
61741;SDS011;47650;49.848;9.620;2024-03-22T08:16:12;21.10;;;15.88;;
61741;SDS011;47650;49.848;9.620;2024-03-22T08:18:37;18.50;;;15.52;;
61741;SDS011;47650;49.848;9.620;2024-03-22T08:21:02;18.17;;;14.95;;
61741;SDS011;47650;49.848;9.620;2024-03-22T08:23:28;19.85;;;15.50;;
61741;SDS011;47650;49.848;9.620;2024-03-22T08:25:53;16.25;;;14.40;;
61741;SDS011;47650;49.848;9.620;2024-03-22T08:28:19;18.45;;;14.80;;
61741;SDS011;47650;49.848;9.620;2024-03-22T08:30:51;16.13;;;14.23;;
61741;SDS011;47650;49.848;9.620;2024-03-22T08:35:43;16.17;;;14.47;;
61741;SDS011;47650;49.848;9.620;2024-03-22T08:38:09;18.75;;;14.65;;
61741;SDS011;47650;49.848;9.620;2024-03-22T08:40:39;16.63;;;14.80;;
61741;SDS011;47650;49.848;9.620;2024-03-22T08:43:05;19.45;;;15.38;;
61741;SDS011;47650;49.848;9.620;2024-03-22T08:45:32;17.55;;;13.63;;
61741;SDS011;47650;49.848;9.620;2024-03-22T08:47:58;16.20;;;14.50;;
61741;SDS011;47650;49.848;9.620;2024-03-22T08:50:23;20.50;;;14.05;;
61741;SDS011;47650;49.848;9.620;2024-03-22T08:52:50;17.10;;;14.05;;
61741;SDS011;47650;49.848;9.620;2024-03-22T08:55:16;19.23;;;13.48;;
61741;SDS011;47650;49.848;9.620;2024-03-22T08:57:43;17.77;;;13.73;;
61741;SDS011;47650;49.848;9.620;2024-03-22T09:00:08;15.85;;;13.15;;
61741;SDS011;47650;49.848;9.620;2024-03-22T09:02:36;15.90;;;14.23;;
61741;SDS011;47650;49.848;9.620;2024-03-22T09:05:03;18.40;;;12.02;;
61741;SDS011;47650;49.848;9.620;2024-03-22T09:07:29;14.68;;;12.40;;
61741;SDS011;47650;49.848;9.620;2024-03-22T09:09:55;14.52;;;11.93;;
61741;SDS011;47650;49.848;9.620;2024-03-22T09:12:29;13.80;;;12.30;;
61741;SDS011;47650;49.848;9.620;2024-03-22T09:17:19;16.50;;;12.23;;
61741;SDS011;47650;49.848;9.620;2024-03-22T09:19:44;13.20;;;10.45;;
61741;SDS011;47650;49.848;9.620;2024-03-22T09:22:11;13.07;;;11.07;;
61741;SDS011;47650;49.848;9.620;2024-03-22T09:24:36;12.60;;;10.32;;
61741;SDS011;47650;49.848;9.620;2024-03-22T09:27:01;10.50;;;8.43;;
61741;SDS011;47650;49.848;9.620;2024-03-22T09:29:29;10.88;;;8.68;;
61741;SDS011;47650;49.848;9.620;2024-03-22T09:31:55;9.95;;;8.48;;
61741;SDS011;47650;49.848;9.620;2024-03-22T09:34:20;8.20;;;7.40;;
61741;SDS011;47650;49.848;9.620;2024-03-22T09:36:46;8.40;;;6.57;;
61741;SDS011;47650;49.848;9.620;2024-03-22T09:39:13;9.45;;;7.30;;
61741;SDS011;47650;49.848;9.620;2024-03-22T09:41:43;8.57;;;6.72;;
61741;SDS011;47650;49.848;9.620;2024-03-22T09:44:12;7.35;;;6.65;;
61741;SDS011;47650;49.848;9.620;2024-03-22T09:46:39;8.95;;;7.00;;
61741;SDS011;47650;49.848;9.620;2024-03-22T09:49:05;7.47;;;6.57;;
61741;SDS011;47650;49.848;9.620;2024-03-22T09:51:32;7.78;;;6.57;;
61741;SDS011;47650;49.848;9.620;2024-03-22T09:53:59;7.70;;;6.22;;
61741;SDS011;47650;49.848;9.620;2024-03-22T09:56:26;9.23;;;6.47;;
61741;SDS011;47650;49.848;9.620;2024-03-22T09:58:54;6.82;;;5.38;;
61741;SDS011;47650;49.848;9.620;2024-03-22T10:01:19;6.82;;;4.68;;
61741;SDS011;47650;49.848;9.620;2024-03-22T10:03:44;6.40;;;4.47;;
61741;SDS011;47650;49.848;9.620;2024-03-22T10:06:10;6.93;;;4.72;;
61741;SDS011;47650;49.848;9.620;2024-03-22T10:08:36;5.88;;;4.55;;
61741;SDS011;47650;49.848;9.620;2024-03-22T10:11:02;7.32;;;4.18;;
61741;SDS011;47650;49.848;9.620;2024-03-22T10:13:28;5.82;;;4.47;;
61741;SDS011;47650;49.848;9.620;2024-03-22T10:15:56;5.28;;;3.42;;
61741;SDS011;47650;49.848;9.620;2024-03-22T10:18:21;4.72;;;3.10;;
61741;SDS011;47650;49.848;9.620;2024-03-22T10:20:47;9.80;;;3.10;;
61741;SDS011;47650;49.848;9.620;2024-03-22T10:23:12;5.90;;;3.30;;
61741;SDS011;47650;49.848;9.620;2024-03-22T10:25:39;6.13;;;3.00;;
61741;SDS011;47650;49.848;9.620;2024-03-22T10:28:05;3.03;;;2.15;;
61741;SDS011;47650;49.848;9.620;2024-03-22T10:30:31;4.13;;;3.20;;
61741;SDS011;47650;49.848;9.620;2024-03-22T10:33:01;6.60;;;3.00;;
61741;SDS011;47650;49.848;9.620;2024-03-22T10:35:28;4.20;;;2.60;;
61741;SDS011;47650;49.848;9.620;2024-03-22T10:37:54;3.20;;;2.70;;
61741;SDS011;47650;49.848;9.620;2024-03-22T10:40:20;4.65;;;2.58;;
61741;SDS011;47650;49.848;9.620;2024-03-22T10:42:45;3.58;;;2.40;;
61741;SDS011;47650;49.848;9.620;2024-03-22T10:45:11;4.53;;;2.70;;
61741;SDS011;47650;49.848;9.620;2024-03-22T10:47:37;5.13;;;2.80;;
61741;SDS011;47650;49.848;9.620;2024-03-22T10:50:10;3.95;;;2.40;;
61741;SDS011;47650;49.848;9.620;2024-03-22T10:52:39;4.05;;;2.35;;
61741;SDS011;47650;49.848;9.620;2024-03-22T10:55:15;2.28;;;2.08;;
61741;SDS011;47650;49.848;9.620;2024-03-22T10:57:55;2.92;;;2.30;;
61741;SDS011;47650;49.848;9.620;2024-03-22T11:00:27;2.78;;;1.92;;
61741;SDS011;47650;49.848;9.620;2024-03-22T11:02:58;3.00;;;2.08;;
61741;SDS011;47650;49.848;9.620;2024-03-22T11:05:25;4.03;;;1.95;;
61741;SDS011;47650;49.848;9.620;2024-03-22T11:08:00;3.20;;;2.20;;
61741;SDS011;47650;49.848;9.620;2024-03-22T11:10:33;2.33;;;1.60;;
61741;SDS011;47650;49.848;9.620;2024-03-22T11:13:05;2.83;;;1.95;;
61741;SDS011;47650;49.848;9.620;2024-03-22T11:15:33;3.42;;;2.20;;
61741;SDS011;47650;49.848;9.620;2024-03-22T11:17:59;2.35;;;2.10;;
61741;SDS011;47650;49.848;9.620;2024-03-22T11:20:25;4.50;;;2.85;;
61741;SDS011;47650;49.848;9.620;2024-03-22T11:22:52;5.30;;;2.13;;
61741;SDS011;47650;49.848;9.620;2024-03-22T11:25:17;6.20;;;2.42;;
61741;SDS011;47650;49.848;9.620;2024-03-22T11:27:45;4.05;;;2.30;;
61741;SDS011;47650;49.848;9.620;2024-03-22T11:30:11;3.08;;;2.25;;
61741;SDS011;47650;49.848;9.620;2024-03-22T11:32:36;3.63;;;2.03;;
61741;SDS011;47650;49.848;9.620;2024-03-22T11:35:10;3.83;;;2.33;;
61741;SDS011;47650;49.848;9.620;2024-03-22T11:37:36;3.13;;;2.38;;
61741;SDS011;47650;49.848;9.620;2024-03-22T11:40:03;3.70;;;2.13;;
61741;SDS011;47650;49.848;9.620;2024-03-22T11:42:30;4.88;;;2.10;;
61741;SDS011;47650;49.848;9.620;2024-03-22T11:44:57;2.65;;;2.25;;
61741;SDS011;47650;49.848;9.620;2024-03-22T11:47:23;3.17;;;1.95;;
61741;SDS011;47650;49.848;9.620;2024-03-22T11:49:50;2.60;;;2.10;;
61741;SDS011;47650;49.848;9.620;2024-03-22T11:52:15;2.92;;;2.05;;
61741;SDS011;47650;49.848;9.620;2024-03-22T11:54:42;1.85;;;1.55;;
61741;SDS011;47650;49.848;9.620;2024-03-22T11:57:08;1.73;;;1.30;;
61741;SDS011;47650;49.848;9.620;2024-03-22T11:59:34;1.20;;;1.10;;
61741;SDS011;47650;49.848;9.620;2024-03-22T12:02:01;2.10;;;1.50;;
61741;SDS011;47650;49.848;9.620;2024-03-22T12:04:27;2.33;;;1.25;;
61741;SDS011;47650;49.848;9.620;2024-03-22T12:06:53;2.08;;;1.17;;
61741;SDS011;47650;49.848;9.620;2024-03-22T12:09:22;6.72;;;1.55;;
61741;SDS011;47650;49.848;9.620;2024-03-22T12:11:49;2.07;;;1.30;;
61741;SDS011;47650;49.848;9.620;2024-03-22T12:14:14;2.65;;;1.20;;
61741;SDS011;47650;49.848;9.620;2024-03-22T12:16:40;2.28;;;1.40;;
61741;SDS011;47650;49.848;9.620;2024-03-22T12:19:05;2.47;;;1.42;;
61741;SDS011;47650;49.848;9.620;2024-03-22T12:21:31;2.08;;;1.20;;
61741;SDS011;47650;49.848;9.620;2024-03-22T12:23:57;1.55;;;1.13;;
61741;SDS011;47650;49.848;9.620;2024-03-22T12:26:22;2.53;;;1.30;;
61741;SDS011;47650;49.848;9.620;2024-03-22T12:28:47;1.90;;;1.27;;
61741;SDS011;47650;49.848;9.620;2024-03-22T12:31:13;3.63;;;1.70;;
61741;SDS011;47650;49.848;9.620;2024-03-22T12:33:38;2.22;;;1.20;;
61741;SDS011;47650;49.848;9.620;2024-03-22T12:36:03;2.95;;;1.30;;
61741;SDS011;47650;49.848;9.620;2024-03-22T12:38:29;2.28;;;1.30;;
61741;SDS011;47650;49.848;9.620;2024-03-22T12:40:57;2.20;;;1.30;;
61741;SDS011;47650;49.848;9.620;2024-03-22T12:43:28;2.13;;;1.42;;
61741;SDS011;47650;49.848;9.620;2024-03-22T12:45:53;2.65;;;1.27;;
61741;SDS011;47650;49.848;9.620;2024-03-22T12:48:24;4.03;;;1.67;;
61741;SDS011;47650;49.848;9.620;2024-03-22T12:50:50;1.80;;;1.50;;
61741;SDS011;47650;49.848;9.620;2024-03-22T12:53:17;3.03;;;1.50;;
61741;SDS011;47650;49.848;9.620;2024-03-22T12:55:42;2.30;;;1.45;;
61741;SDS011;47650;49.848;9.620;2024-03-22T12:58:09;1.85;;;1.55;;
61741;SDS011;47650;49.848;9.620;2024-03-22T13:00:41;1.57;;;1.20;;
61741;SDS011;47650;49.848;9.620;2024-03-22T13:03:06;2.58;;;1.60;;
61741;SDS011;47650;49.848;9.620;2024-03-22T13:05:31;5.13;;;1.83;;
61741;SDS011;47650;49.848;9.620;2024-03-22T13:07:57;1.60;;;1.20;;
61741;SDS011;47650;49.848;9.620;2024-03-22T13:10:22;2.15;;;1.13;;
61741;SDS011;47650;49.848;9.620;2024-03-22T13:12:47;1.25;;;1.02;;
61741;SDS011;47650;49.848;9.620;2024-03-22T13:15:13;2.53;;;1.13;;
61741;SDS011;47650;49.848;9.620;2024-03-22T13:17:38;1.42;;;1.00;;
61741;SDS011;47650;49.848;9.620;2024-03-22T13:20:04;2.60;;;1.23;;
61741;SDS011;47650;49.848;9.620;2024-03-22T13:22:35;2.25;;;1.33;;
61741;SDS011;47650;49.848;9.620;2024-03-22T13:25:04;1.42;;;1.30;;
61741;SDS011;47650;49.848;9.620;2024-03-22T13:27:41;2.00;;;1.40;;
61741;SDS011;47650;49.848;9.620;2024-03-22T13:30:08;2.83;;;1.52;;
61741;SDS011;47650;49.848;9.620;2024-03-22T13:32:37;3.47;;;1.48;;
61741;SDS011;47650;49.848;9.620;2024-03-22T13:35:03;3.08;;;1.55;;
61741;SDS011;47650;49.848;9.620;2024-03-22T13:37:30;2.67;;;1.73;;
61741;SDS011;47650;49.848;9.620;2024-03-22T13:39:55;5.85;;;1.50;;
61741;SDS011;47650;49.848;9.620;2024-03-22T13:42:21;3.53;;;1.63;;
61741;SDS011;47650;49.848;9.620;2024-03-22T13:44:46;4.88;;;1.90;;
61741;SDS011;47650;49.848;9.620;2024-03-22T13:47:11;3.15;;;1.65;;
61741;SDS011;47650;49.848;9.620;2024-03-22T13:49:37;2.78;;;1.88;;
61741;SDS011;47650;49.848;9.620;2024-03-22T13:52:06;2.15;;;1.73;;
61741;SDS011;47650;49.848;9.620;2024-03-22T13:54:31;2.13;;;1.58;;
61741;SDS011;47650;49.848;9.620;2024-03-22T13:56:58;3.88;;;1.80;;
61741;SDS011;47650;49.848;9.620;2024-03-22T13:59:23;2.30;;;1.60;;
61741;SDS011;47650;49.848;9.620;2024-03-22T14:01:49;4.13;;;2.08;;
61741;SDS011;47650;49.848;9.620;2024-03-22T14:04:15;3.00;;;1.88;;
61741;SDS011;47650;49.848;9.620;2024-03-22T14:06:40;2.35;;;1.60;;
61741;SDS011;47650;49.848;9.620;2024-03-22T14:09:06;3.05;;;1.73;;
61741;SDS011;47650;49.848;9.620;2024-03-22T14:11:35;2.63;;;1.65;;
61741;SDS011;47650;49.848;9.620;2024-03-22T14:14:00;3.30;;;2.00;;
61741;SDS011;47650;49.848;9.620;2024-03-22T14:16:27;4.45;;;1.77;;
61741;SDS011;47650;49.848;9.620;2024-03-22T14:18:52;3.50;;;1.98;;
61741;SDS011;47650;49.848;9.620;2024-03-22T14:21:18;2.83;;;1.90;;
61741;SDS011;47650;49.848;9.620;2024-03-22T14:23:48;3.55;;;1.80;;
61741;SDS011;47650;49.848;9.620;2024-03-22T14:26:16;5.80;;;2.60;;
61741;SDS011;47650;49.848;9.620;2024-03-22T14:28:48;5.10;;;2.45;;
61741;SDS011;47650;49.848;9.620;2024-03-22T14:31:15;3.60;;;2.20;;